sensor_id;sensor_type;location;lat;lon;timestamp;temperature;humidity
57444;DHT22;43289;52.962;6.196;2023-04-25T00:00:24;6.40;99.90
57444;DHT22;43289;52.962;6.196;2023-04-25T00:02:50;6.40;99.90
57444;DHT22;43289;52.962;6.196;2023-04-25T00:05:17;6.30;99.90
57444;DHT22;43289;52.962;6.196;2023-04-25T00:07:42;6.20;99.90
57444;DHT22;43289;52.962;6.196;2023-04-25T00:10:09;6.20;99.90
57444;DHT22;43289;52.962;6.196;2023-04-25T00:12:36;6.20;99.90
57444;DHT22;43289;52.962;6.196;2023-04-25T00:15:02;6.20;99.90
57444;DHT22;43289;52.962;6.196;2023-04-25T00:17:28;6.20;99.90
57444;DHT22;43289;52.962;6.196;2023-04-25T00:19:54;6.20;99.90
57444;DHT22;43289;52.962;6.196;2023-04-25T00:22:20;6.20;99.90
57444;DHT22;43289;52.962;6.196;2023-04-25T00:24:46;6.10;99.90
57444;DHT22;43289;52.962;6.196;2023-04-25T00:27:11;6.10;99.90
57444;DHT22;43289;52.962;6.196;2023-04-25T00:29:37;6.00;99.90
57444;DHT22;43289;52.962;6.196;2023-04-25T00:32:02;6.00;99.90
57444;DHT22;43289;52.962;6.196;2023-04-25T00:34:28;6.00;99.90
57444;DHT22;43289;52.962;6.196;2023-04-25T00:36:54;6.00;99.90
57444;DHT22;43289;52.962;6.196;2023-04-25T00:39:19;5.90;99.90
57444;DHT22;43289;52.962;6.196;2023-04-25T00:41:45;5.90;99.90
57444;DHT22;43289;52.962;6.196;2023-04-25T00:44:11;5.90;99.90
57444;DHT22;43289;52.962;6.196;2023-04-25T00:46:38;5.80;99.90
57444;DHT22;43289;52.962;6.196;2023-04-25T00:49:04;5.80;99.90
57444;DHT22;43289;52.962;6.196;2023-04-25T00:51:30;5.70;99.90
57444;DHT22;43289;52.962;6.196;2023-04-25T00:53:57;5.80;99.90
57444;DHT22;43289;52.962;6.196;2023-04-25T00:56:23;5.80;99.90
57444;DHT22;43289;52.962;6.196;2023-04-25T00:58:50;5.80;99.90
57444;DHT22;43289;52.962;6.196;2023-04-25T01:01:18;5.80;99.90
57444;DHT22;43289;52.962;6.196;2023-04-25T01:03:45;5.80;99.90
57444;DHT22;43289;52.962;6.196;2023-04-25T01:06:12;5.90;99.90
57444;DHT22;43289;52.962;6.196;2023-04-25T01:08:38;5.80;99.90
57444;DHT22;43289;52.962;6.196;2023-04-25T01:11:05;5.80;99.90
57444;DHT22;43289;52.962;6.196;2023-04-25T01:13:31;5.70;99.90
57444;DHT22;43289;52.962;6.196;2023-04-25T01:15:58;5.70;99.90
57444;DHT22;43289;52.962;6.196;2023-04-25T01:18:24;5.70;99.90
57444;DHT22;43289;52.962;6.196;2023-04-25T01:20:52;5.60;99.90
57444;DHT22;43289;52.962;6.196;2023-04-25T01:23:19;5.60;99.90
57444;DHT22;43289;52.962;6.196;2023-04-25T01:25:45;5.60;99.90
57444;DHT22;43289;52.962;6.196;2023-04-25T01:28:12;5.60;99.90
57444;DHT22;43289;52.962;6.196;2023-04-25T01:30:38;5.60;99.90
57444;DHT22;43289;52.962;6.196;2023-04-25T01:33:04;5.60;99.90
57444;DHT22;43289;52.962;6.196;2023-04-25T01:35:31;5.60;99.90
57444;DHT22;43289;52.962;6.196;2023-04-25T01:37:57;5.70;99.90
57444;DHT22;43289;52.962;6.196;2023-04-25T01:40:27;5.70;99.90
57444;DHT22;43289;52.962;6.196;2023-04-25T01:42:52;5.80;99.90
57444;DHT22;43289;52.962;6.196;2023-04-25T01:45:18;5.80;99.90
57444;DHT22;43289;52.962;6.196;2023-04-25T01:47:44;5.80;99.90
57444;DHT22;43289;52.962;6.196;2023-04-25T01:50:15;5.80;99.90
57444;DHT22;43289;52.962;6.196;2023-04-25T01:52:41;5.80;99.90
57444;DHT22;43289;52.962;6.196;2023-04-25T01:55:09;5.70;99.90
57444;DHT22;43289;52.962;6.196;2023-04-25T01:57:35;5.70;99.90
57444;DHT22;43289;52.962;6.196;2023-04-25T02:00:04;5.70;99.90
57444;DHT22;43289;52.962;6.196;2023-04-25T02:02:30;5.60;99.90
57444;DHT22;43289;52.962;6.196;2023-04-25T02:04:55;5.70;99.90
57444;DHT22;43289;52.962;6.196;2023-04-25T02:07:21;5.60;99.90
57444;DHT22;43289;52.962;6.196;2023-04-25T02:09:47;5.60;99.90
57444;DHT22;43289;52.962;6.196;2023-04-25T02:12:12;5.60;99.90
57444;DHT22;43289;52.962;6.196;2023-04-25T02:14:38;5.50;99.90
57444;DHT22;43289;52.962;6.196;2023-04-25T02:17:04;5.40;99.90
57444;DHT22;43289;52.962;6.196;2023-04-25T02:19:31;5.40;99.90
57444;DHT22;43289;52.962;6.196;2023-04-25T02:21:56;5.30;99.90
57444;DHT22;43289;52.962;6.196;2023-04-25T02:24:22;5.30;99.90
57444;DHT22;43289;52.962;6.196;2023-04-25T02:26:48;5.30;99.90
57444;DHT22;43289;52.962;6.196;2023-04-25T02:29:15;5.30;99.90
57444;DHT22;43289;52.962;6.196;2023-04-25T02:31:40;5.30;99.90
57444;DHT22;43289;52.962;6.196;2023-04-25T02:34:06;5.30;99.90
57444;DHT22;43289;52.962;6.196;2023-04-25T02:36:32;5.20;99.90
57444;DHT22;43289;52.962;6.196;2023-04-25T02:39:00;5.30;99.90
57444;DHT22;43289;52.962;6.196;2023-04-25T02:41:26;5.20;99.90
57444;DHT22;43289;52.962;6.196;2023-04-25T02:43:51;5.20;99.90
57444;DHT22;43289;52.962;6.196;2023-04-25T02:46:17;5.20;99.90
57444;DHT22;43289;52.962;6.196;2023-04-25T02:48:43;5.20;99.90
57444;DHT22;43289;52.962;6.196;2023-04-25T02:51:09;5.20;99.90
57444;DHT22;43289;52.962;6.196;2023-04-25T02:53:35;5.20;99.90
57444;DHT22;43289;52.962;6.196;2023-04-25T02:56:01;5.20;99.90
57444;DHT22;43289;52.962;6.196;2023-04-25T02:58:27;5.10;99.90
57444;DHT22;43289;52.962;6.196;2023-04-25T03:00:53;5.10;99.90
57444;DHT22;43289;52.962;6.196;2023-04-25T03:03:19;5.10;99.90
57444;DHT22;43289;52.962;6.196;2023-04-25T03:05:50;5.20;99.90
57444;DHT22;43289;52.962;6.196;2023-04-25T03:08:17;5.20;99.90
57444;DHT22;43289;52.962;6.196;2023-04-25T03:10:44;5.20;99.90
57444;DHT22;43289;52.962;6.196;2023-04-25T03:13:10;5.00;99.90
57444;DHT22;43289;52.962;6.196;2023-04-25T03:15:36;4.90;99.90
57444;DHT22;43289;52.962;6.196;2023-04-25T03:18:02;4.80;99.90
57444;DHT22;43289;52.962;6.196;2023-04-25T03:20:27;4.80;99.90
57444;DHT22;43289;52.962;6.196;2023-04-25T03:22:53;4.70;99.90
57444;DHT22;43289;52.962;6.196;2023-04-25T03:25:19;4.70;99.90
57444;DHT22;43289;52.962;6.196;2023-04-25T03:27:45;4.70;99.90
57444;DHT22;43289;52.962;6.196;2023-04-25T03:30:10;4.60;99.90
57444;DHT22;43289;52.962;6.196;2023-04-25T03:32:38;4.60;99.90
57444;DHT22;43289;52.962;6.196;2023-04-25T03:35:03;4.70;99.90
57444;DHT22;43289;52.962;6.196;2023-04-25T03:37:29;4.60;99.90
57444;DHT22;43289;52.962;6.196;2023-04-25T03:39:55;4.60;99.90
57444;DHT22;43289;52.962;6.196;2023-04-25T03:42:20;4.60;99.90
57444;DHT22;43289;52.962;6.196;2023-04-25T03:44:48;4.60;99.90
57444;DHT22;43289;52.962;6.196;2023-04-25T03:47:14;4.60;99.90
57444;DHT22;43289;52.962;6.196;2023-04-25T03:49:40;4.60;99.90
57444;DHT22;43289;52.962;6.196;2023-04-25T03:52:06;4.60;99.90
57444;DHT22;43289;52.962;6.196;2023-04-25T03:54:32;4.70;99.90
57444;DHT22;43289;52.962;6.196;2023-04-25T03:56:58;4.70;99.90
57444;DHT22;43289;52.962;6.196;2023-04-25T03:59:23;4.80;99.90
57444;DHT22;43289;52.962;6.196;2023-04-25T04:01:50;4.80;99.90
57444;DHT22;43289;52.962;6.196;2023-04-25T04:04:15;4.80;99.90
57444;DHT22;43289;52.962;6.196;2023-04-25T04:06:41;4.90;99.90
57444;DHT22;43289;52.962;6.196;2023-04-25T04:09:07;4.90;99.90
57444;DHT22;43289;52.962;6.196;2023-04-25T04:11:36;4.90;99.90
57444;DHT22;43289;52.962;6.196;2023-04-25T04:14:04;5.00;99.90
57444;DHT22;43289;52.962;6.196;2023-04-25T04:16:33;4.90;99.90
57444;DHT22;43289;52.962;6.196;2023-04-25T04:18:58;5.00;99.90
57444;DHT22;43289;52.962;6.196;2023-04-25T04:21:24;5.00;99.90
57444;DHT22;43289;52.962;6.196;2023-04-25T04:23:50;5.00;99.90
57444;DHT22;43289;52.962;6.196;2023-04-25T04:26:15;5.00;99.90
57444;DHT22;43289;52.962;6.196;2023-04-25T04:28:44;5.00;99.90
57444;DHT22;43289;52.962;6.196;2023-04-25T04:31:10;5.00;99.90
57444;DHT22;43289;52.962;6.196;2023-04-25T04:33:36;5.00;99.90
57444;DHT22;43289;52.962;6.196;2023-04-25T04:36:03;5.00;99.90
57444;DHT22;43289;52.962;6.196;2023-04-25T04:38:29;5.00;99.90
57444;DHT22;43289;52.962;6.196;2023-04-25T04:40:55;4.90;99.90
57444;DHT22;43289;52.962;6.196;2023-04-25T04:43:21;4.90;99.90
57444;DHT22;43289;52.962;6.196;2023-04-25T04:45:48;4.90;99.90
57444;DHT22;43289;52.962;6.196;2023-04-25T04:48:16;4.90;99.90
57444;DHT22;43289;52.962;6.196;2023-04-25T04:50:43;4.90;99.90
57444;DHT22;43289;52.962;6.196;2023-04-25T04:53:13;4.90;99.90
57444;DHT22;43289;52.962;6.196;2023-04-25T04:55:38;4.80;99.90
57444;DHT22;43289;52.962;6.196;2023-04-25T04:58:05;4.80;99.90
57444;DHT22;43289;52.962;6.196;2023-04-25T05:00:31;4.80;99.90
57444;DHT22;43289;52.962;6.196;2023-04-25T05:02:58;4.80;99.90
57444;DHT22;43289;52.962;6.196;2023-04-25T05:05:24;4.90;99.90
57444;DHT22;43289;52.962;6.196;2023-04-25T05:07:50;5.00;99.90
57444;DHT22;43289;52.962;6.196;2023-04-25T05:10:17;5.00;99.90
57444;DHT22;43289;52.962;6.196;2023-04-25T05:12:44;5.10;99.90
57444;DHT22;43289;52.962;6.196;2023-04-25T05:15:10;5.20;99.90
57444;DHT22;43289;52.962;6.196;2023-04-25T05:17:36;5.30;99.90
57444;DHT22;43289;52.962;6.196;2023-04-25T05:20:02;5.30;99.90
57444;DHT22;43289;52.962;6.196;2023-04-25T05:22:32;5.30;99.90
57444;DHT22;43289;52.962;6.196;2023-04-25T05:24:58;5.30;99.90
57444;DHT22;43289;52.962;6.196;2023-04-25T05:27:23;5.30;99.90
57444;DHT22;43289;52.962;6.196;2023-04-25T05:29:49;5.30;99.90
57444;DHT22;43289;52.962;6.196;2023-04-25T05:32:14;5.40;99.90
57444;DHT22;43289;52.962;6.196;2023-04-25T05:34:40;5.40;99.90
57444;DHT22;43289;52.962;6.196;2023-04-25T05:37:07;5.40;99.90
57444;DHT22;43289;52.962;6.196;2023-04-25T05:39:32;5.40;99.90
57444;DHT22;43289;52.962;6.196;2023-04-25T05:41:58;5.40;99.90
57444;DHT22;43289;52.962;6.196;2023-04-25T05:44:23;5.40;99.90
57444;DHT22;43289;52.962;6.196;2023-04-25T05:46:49;5.50;99.90
57444;DHT22;43289;52.962;6.196;2023-04-25T05:49:15;5.50;99.90
57444;DHT22;43289;52.962;6.196;2023-04-25T05:51:40;5.50;99.90
57444;DHT22;43289;52.962;6.196;2023-04-25T05:54:07;5.60;99.90
57444;DHT22;43289;52.962;6.196;2023-04-25T05:56:33;5.60;99.90
57444;DHT22;43289;52.962;6.196;2023-04-25T05:58:58;5.60;99.90
57444;DHT22;43289;52.962;6.196;2023-04-25T06:01:31;5.60;99.90
57444;DHT22;43289;52.962;6.196;2023-04-25T06:03:56;5.50;99.90
57444;DHT22;43289;52.962;6.196;2023-04-25T06:06:22;5.50;99.90
57444;DHT22;43289;52.962;6.196;2023-04-25T06:08:48;5.50;99.90
57444;DHT22;43289;52.962;6.196;2023-04-25T06:11:14;5.60;99.90
57444;DHT22;43289;52.962;6.196;2023-04-25T06:13:41;5.70;99.90
57444;DHT22;43289;52.962;6.196;2023-04-25T06:16:07;5.80;99.90
57444;DHT22;43289;52.962;6.196;2023-04-25T06:18:32;5.90;99.90
57444;DHT22;43289;52.962;6.196;2023-04-25T06:20:58;6.10;99.90
57444;DHT22;43289;52.962;6.196;2023-04-25T06:23:24;6.30;99.90
57444;DHT22;43289;52.962;6.196;2023-04-25T06:25:49;6.50;99.90
57444;DHT22;43289;52.962;6.196;2023-04-25T06:28:18;6.70;99.90
57444;DHT22;43289;52.962;6.196;2023-04-25T06:30:44;6.80;99.90
57444;DHT22;43289;52.962;6.196;2023-04-25T06:33:10;6.70;99.90
57444;DHT22;43289;52.962;6.196;2023-04-25T06:35:36;6.10;99.90
57444;DHT22;43289;52.962;6.196;2023-04-25T06:38:02;5.60;99.90
57444;DHT22;43289;52.962;6.196;2023-04-25T06:40:28;5.30;99.90
57444;DHT22;43289;52.962;6.196;2023-04-25T06:42:56;5.20;99.90
57444;DHT22;43289;52.962;6.196;2023-04-25T06:45:22;5.10;99.90
57444;DHT22;43289;52.962;6.196;2023-04-25T06:47:47;5.20;99.90
57444;DHT22;43289;52.962;6.196;2023-04-25T06:50:13;5.20;99.90
57444;DHT22;43289;52.962;6.196;2023-04-25T06:52:47;5.20;99.90
57444;DHT22;43289;52.962;6.196;2023-04-25T06:55:12;5.40;99.90
57444;DHT22;43289;52.962;6.196;2023-04-25T06:57:40;5.40;99.90
57444;DHT22;43289;52.962;6.196;2023-04-25T07:00:06;5.50;99.90
57444;DHT22;43289;52.962;6.196;2023-04-25T07:02:36;5.60;99.90
57444;DHT22;43289;52.962;6.196;2023-04-25T07:05:02;5.70;99.90
57444;DHT22;43289;52.962;6.196;2023-04-25T07:07:30;5.80;99.90
57444;DHT22;43289;52.962;6.196;2023-04-25T07:09:56;6.10;99.90
57444;DHT22;43289;52.962;6.196;2023-04-25T07:12:21;6.40;99.90
57444;DHT22;43289;52.962;6.196;2023-04-25T07:14:47;6.40;99.90
57444;DHT22;43289;52.962;6.196;2023-04-25T07:17:12;6.40;99.90
57444;DHT22;43289;52.962;6.196;2023-04-25T07:19:38;6.50;99.90
57444;DHT22;43289;52.962;6.196;2023-04-25T07:29:24;6.60;99.90
57444;DHT22;43289;52.962;6.196;2023-04-25T07:31:50;6.30;99.90
57444;DHT22;43289;52.962;6.196;2023-04-25T07:34:15;6.40;99.90
57444;DHT22;43289;52.962;6.196;2023-04-25T07:36:41;6.60;99.90
57444;DHT22;43289;52.962;6.196;2023-04-25T07:41:34;6.70;99.90
57444;DHT22;43289;52.962;6.196;2023-04-25T07:44:00;6.90;99.90
57444;DHT22;43289;52.962;6.196;2023-04-25T07:46:25;6.90;99.90
57444;DHT22;43289;52.962;6.196;2023-04-25T07:48:51;6.90;99.90
57444;DHT22;43289;52.962;6.196;2023-04-25T07:51:17;6.80;99.90
57444;DHT22;43289;52.962;6.196;2023-04-25T09:32:19;6.90;99.90
57444;DHT22;43289;52.962;6.196;2023-04-25T10:02:23;8.50;99.90
57444;DHT22;43289;52.962;6.196;2023-04-25T10:07:18;10.40;99.90
57444;DHT22;43289;52.962;6.196;2023-04-25T10:09:47;8.70;99.90
57444;DHT22;43289;52.962;6.196;2023-04-25T10:12:16;8.30;99.90
57444;DHT22;43289;52.962;6.196;2023-04-25T11:00:18;8.30;99.90
57444;DHT22;43289;52.962;6.196;2023-04-25T11:02:52;11.10;99.90
57444;DHT22;43289;52.962;6.196;2023-04-25T11:05:34;11.10;99.90
57444;DHT22;43289;52.962;6.196;2023-04-25T11:08:01;10.90;99.90
57444;DHT22;43289;52.962;6.196;2023-04-25T11:10:28;10.80;99.90
57444;DHT22;43289;52.962;6.196;2023-04-25T11:15:20;10.60;99.90
57444;DHT22;43289;52.962;6.196;2023-04-25T11:17:46;10.90;99.90
57444;DHT22;43289;52.962;6.196;2023-04-25T11:25:07;10.40;99.90
57444;DHT22;43289;52.962;6.196;2023-04-25T11:30:13;9.80;99.90
57444;DHT22;43289;52.962;6.196;2023-04-25T11:32:40;8.80;99.90
57444;DHT22;43289;52.962;6.196;2023-04-25T11:35:06;8.60;99.90
57444;DHT22;43289;52.962;6.196;2023-04-25T11:37:32;8.50;99.90
57444;DHT22;43289;52.962;6.196;2023-04-25T12:09:36;8.20;99.90
57444;DHT22;43289;52.962;6.196;2023-04-25T12:12:02;11.20;99.90
57444;DHT22;43289;52.962;6.196;2023-04-25T12:29:21;10.20;99.90
57444;DHT22;43289;52.962;6.196;2023-04-25T12:31:48;8.40;99.90
57444;DHT22;43289;52.962;6.196;2023-04-25T12:34:14;7.90;99.90
57444;DHT22;43289;52.962;6.196;2023-04-25T12:36:43;7.70;99.90
57444;DHT22;43289;52.962;6.196;2023-04-25T12:39:09;7.70;99.90
57444;DHT22;43289;52.962;6.196;2023-04-25T12:41:40;7.80;99.90
57444;DHT22;43289;52.962;6.196;2023-04-25T13:03:37;7.90;99.90
57444;DHT22;43289;52.962;6.196;2023-04-25T13:06:03;8.50;99.90
57444;DHT22;43289;52.962;6.196;2023-04-25T13:30:25;8.20;99.90
57444;DHT22;43289;52.962;6.196;2023-04-25T13:45:06;11.60;99.90
57444;DHT22;43289;52.962;6.196;2023-04-25T14:04:38;9.50;99.90
57444;DHT22;43289;52.962;6.196;2023-04-25T14:31:33;9.40;99.90
57444;DHT22;43289;52.962;6.196;2023-04-25T14:34:00;12.10;99.90
57444;DHT22;43289;52.962;6.196;2023-04-25T14:38:52;11.50;99.90
57444;DHT22;43289;52.962;6.196;2023-04-25T14:55:57;11.90;99.90
57444;DHT22;43289;52.962;6.196;2023-04-25T14:58:22;8.90;99.90
57444;DHT22;43289;52.962;6.196;2023-04-25T15:00:48;8.60;99.90
57444;DHT22;43289;52.962;6.196;2023-04-25T15:03:14;8.40;99.90
57444;DHT22;43289;52.962;6.196;2023-04-25T15:05:42;8.30;99.90
57444;DHT22;43289;52.962;6.196;2023-04-25T15:08:07;8.10;99.90
57444;DHT22;43289;52.962;6.196;2023-04-25T15:12:59;8.20;99.90
57444;DHT22;43289;52.962;6.196;2023-04-25T15:54:46;8.70;99.90
57444;DHT22;43289;52.962;6.196;2023-04-25T15:57:12;8.40;99.90
57444;DHT22;43289;52.962;6.196;2023-04-25T15:59:37;8.20;99.90
57444;DHT22;43289;52.962;6.196;2023-04-25T16:02:03;8.20;99.90
57444;DHT22;43289;52.962;6.196;2023-04-25T16:16:44;8.40;99.90
57444;DHT22;43289;52.962;6.196;2023-04-25T16:19:09;8.50;99.90
57444;DHT22;43289;52.962;6.196;2023-04-25T16:21:35;8.40;99.90
57444;DHT22;43289;52.962;6.196;2023-04-25T16:24:01;8.40;99.90
57444;DHT22;43289;52.962;6.196;2023-04-25T16:26:28;8.20;99.90
57444;DHT22;43289;52.962;6.196;2023-04-25T16:28:53;8.00;99.90
57444;DHT22;43289;52.962;6.196;2023-04-25T16:31:19;7.70;99.90
57444;DHT22;43289;52.962;6.196;2023-04-25T16:48:26;7.80;99.90
57444;DHT22;43289;52.962;6.196;2023-04-25T16:50:52;8.40;99.90
57444;DHT22;43289;52.962;6.196;2023-04-25T17:15:21;8.30;99.90
57444;DHT22;43289;52.962;6.196;2023-04-25T17:17:47;8.30;99.90
57444;DHT22;43289;52.962;6.196;2023-04-25T17:27:37;8.30;99.90
57444;DHT22;43289;52.962;6.196;2023-04-25T17:30:04;8.40;99.90
57444;DHT22;43289;52.962;6.196;2023-04-25T17:32:30;8.10;99.90
57444;DHT22;43289;52.962;6.196;2023-04-25T17:34:55;7.90;99.90
57444;DHT22;43289;52.962;6.196;2023-04-25T17:37:22;7.70;99.90
57444;DHT22;43289;52.962;6.196;2023-04-25T17:39:47;7.70;99.90
57444;DHT22;43289;52.962;6.196;2023-04-25T17:42:13;7.60;99.90
57444;DHT22;43289;52.962;6.196;2023-04-25T17:44:40;7.50;99.90
57444;DHT22;43289;52.962;6.196;2023-04-25T17:47:06;7.40;99.90
57444;DHT22;43289;52.962;6.196;2023-04-25T17:49:32;7.20;99.90
57444;DHT22;43289;52.962;6.196;2023-04-25T17:51:59;7.20;99.90
57444;DHT22;43289;52.962;6.196;2023-04-25T17:54:24;7.30;99.90
57444;DHT22;43289;52.962;6.196;2023-04-25T17:56:50;7.40;99.90
57444;DHT22;43289;52.962;6.196;2023-04-25T17:59:16;7.60;99.90
57444;DHT22;43289;52.962;6.196;2023-04-25T18:01:42;7.70;99.90
57444;DHT22;43289;52.962;6.196;2023-04-25T18:04:07;7.90;99.90
57444;DHT22;43289;52.962;6.196;2023-04-25T18:06:33;7.90;99.90
57444;DHT22;43289;52.962;6.196;2023-04-25T18:09:00;7.80;99.90
57444;DHT22;43289;52.962;6.196;2023-04-25T18:11:27;7.60;99.90
57444;DHT22;43289;52.962;6.196;2023-04-25T18:13:54;7.60;99.90
57444;DHT22;43289;52.962;6.196;2023-04-25T18:16:20;7.60;99.90
57444;DHT22;43289;52.962;6.196;2023-04-25T18:18:46;7.70;99.90
57444;DHT22;43289;52.962;6.196;2023-04-25T18:21:18;7.70;99.90
57444;DHT22;43289;52.962;6.196;2023-04-25T18:23:44;7.60;99.90
57444;DHT22;43289;52.962;6.196;2023-04-25T18:26:10;7.30;99.90
57444;DHT22;43289;52.962;6.196;2023-04-25T18:28:36;7.10;99.90
57444;DHT22;43289;52.962;6.196;2023-04-25T18:31:02;7.00;99.90
57444;DHT22;43289;52.962;6.196;2023-04-25T18:33:28;6.90;99.90
57444;DHT22;43289;52.962;6.196;2023-04-25T18:35:58;6.70;99.90
57444;DHT22;43289;52.962;6.196;2023-04-25T18:38:24;6.60;99.90
57444;DHT22;43289;52.962;6.196;2023-04-25T18:40:49;6.50;99.90
57444;DHT22;43289;52.962;6.196;2023-04-25T18:43:17;6.40;99.90
57444;DHT22;43289;52.962;6.196;2023-04-25T18:45:43;6.30;99.90
57444;DHT22;43289;52.962;6.196;2023-04-25T18:48:09;6.30;99.90
57444;DHT22;43289;52.962;6.196;2023-04-25T18:50:36;6.20;99.90
57444;DHT22;43289;52.962;6.196;2023-04-25T18:53:03;6.10;99.90
57444;DHT22;43289;52.962;6.196;2023-04-25T18:55:28;6.00;99.90
57444;DHT22;43289;52.962;6.196;2023-04-25T18:57:54;5.90;99.90
57444;DHT22;43289;52.962;6.196;2023-04-25T19:00:20;5.90;99.90
57444;DHT22;43289;52.962;6.196;2023-04-25T19:02:46;5.80;99.90
57444;DHT22;43289;52.962;6.196;2023-04-25T19:05:12;5.80;99.90
57444;DHT22;43289;52.962;6.196;2023-04-25T19:07:37;5.70;99.90
57444;DHT22;43289;52.962;6.196;2023-04-25T19:10:04;5.60;99.90
57444;DHT22;43289;52.962;6.196;2023-04-25T19:12:30;5.50;99.90
57444;DHT22;43289;52.962;6.196;2023-04-25T19:14:57;5.40;99.90
57444;DHT22;43289;52.962;6.196;2023-04-25T19:17:23;5.40;99.90
57444;DHT22;43289;52.962;6.196;2023-04-25T19:19:49;5.40;99.90
57444;DHT22;43289;52.962;6.196;2023-04-25T19:22:15;5.30;99.90
57444;DHT22;43289;52.962;6.196;2023-04-25T19:24:40;5.20;99.90
57444;DHT22;43289;52.962;6.196;2023-04-25T19:27:06;5.20;99.90
57444;DHT22;43289;52.962;6.196;2023-04-25T19:29:31;5.10;99.90
57444;DHT22;43289;52.962;6.196;2023-04-25T19:31:58;5.10;99.90
57444;DHT22;43289;52.962;6.196;2023-04-25T19:34:24;5.10;99.90
57444;DHT22;43289;52.962;6.196;2023-04-25T19:36:50;5.10;99.90
57444;DHT22;43289;52.962;6.196;2023-04-25T19:39:19;5.10;99.90
57444;DHT22;43289;52.962;6.196;2023-04-25T19:41:45;5.10;99.90
57444;DHT22;43289;52.962;6.196;2023-04-25T19:44:10;5.00;99.90
57444;DHT22;43289;52.962;6.196;2023-04-25T19:46:37;5.00;99.90
57444;DHT22;43289;52.962;6.196;2023-04-25T19:49:04;5.10;99.90
57444;DHT22;43289;52.962;6.196;2023-04-25T19:51:33;5.00;99.90
57444;DHT22;43289;52.962;6.196;2023-04-25T19:53:59;5.00;99.90
57444;DHT22;43289;52.962;6.196;2023-04-25T19:56:25;5.00;99.90
57444;DHT22;43289;52.962;6.196;2023-04-25T19:58:51;5.00;99.90
57444;DHT22;43289;52.962;6.196;2023-04-25T20:01:17;4.90;99.90
57444;DHT22;43289;52.962;6.196;2023-04-25T20:03:43;4.80;99.90
57444;DHT22;43289;52.962;6.196;2023-04-25T20:06:09;4.70;99.90
57444;DHT22;43289;52.962;6.196;2023-04-25T20:08:35;4.70;99.90
57444;DHT22;43289;52.962;6.196;2023-04-25T20:11:01;4.70;99.90
57444;DHT22;43289;52.962;6.196;2023-04-25T20:13:28;4.70;99.90
57444;DHT22;43289;52.962;6.196;2023-04-25T20:15:54;4.70;99.90
57444;DHT22;43289;52.962;6.196;2023-04-25T20:18:19;4.70;99.90
57444;DHT22;43289;52.962;6.196;2023-04-25T20:20:46;4.70;99.90
57444;DHT22;43289;52.962;6.196;2023-04-25T20:23:12;4.70;99.90
57444;DHT22;43289;52.962;6.196;2023-04-25T20:25:38;4.60;99.90
57444;DHT22;43289;52.962;6.196;2023-04-25T20:28:04;4.60;99.90
57444;DHT22;43289;52.962;6.196;2023-04-25T20:30:29;4.50;99.90
57444;DHT22;43289;52.962;6.196;2023-04-25T20:32:56;4.50;99.90
57444;DHT22;43289;52.962;6.196;2023-04-25T20:35:23;4.50;99.90
57444;DHT22;43289;52.962;6.196;2023-04-25T20:37:48;4.40;99.90
57444;DHT22;43289;52.962;6.196;2023-04-25T20:40:15;4.30;99.90
57444;DHT22;43289;52.962;6.196;2023-04-25T20:42:42;4.30;99.90
57444;DHT22;43289;52.962;6.196;2023-04-25T20:45:08;4.30;99.90
57444;DHT22;43289;52.962;6.196;2023-04-25T20:47:39;4.20;99.90
57444;DHT22;43289;52.962;6.196;2023-04-25T20:50:06;4.10;99.90
57444;DHT22;43289;52.962;6.196;2023-04-25T20:52:32;4.10;99.90
57444;DHT22;43289;52.962;6.196;2023-04-25T20:55:00;4.10;99.90
57444;DHT22;43289;52.962;6.196;2023-04-25T20:57:26;4.10;99.90
57444;DHT22;43289;52.962;6.196;2023-04-25T20:59:51;4.10;99.90
57444;DHT22;43289;52.962;6.196;2023-04-25T21:02:19;4.00;99.90
57444;DHT22;43289;52.962;6.196;2023-04-25T21:04:45;4.00;99.90
57444;DHT22;43289;52.962;6.196;2023-04-25T21:07:11;4.00;99.90
57444;DHT22;43289;52.962;6.196;2023-04-25T21:09:38;3.90;99.90
57444;DHT22;43289;52.962;6.196;2023-04-25T21:12:04;4.00;99.90
57444;DHT22;43289;52.962;6.196;2023-04-25T21:14:30;3.90;99.90
57444;DHT22;43289;52.962;6.196;2023-04-25T21:16:56;3.90;99.90
57444;DHT22;43289;52.962;6.196;2023-04-25T21:19:21;3.90;99.90
57444;DHT22;43289;52.962;6.196;2023-04-25T21:21:47;3.90;99.90
57444;DHT22;43289;52.962;6.196;2023-04-25T21:24:13;3.90;99.90
57444;DHT22;43289;52.962;6.196;2023-04-25T21:26:39;3.80;99.90
57444;DHT22;43289;52.962;6.196;2023-04-25T21:29:04;3.80;99.90
57444;DHT22;43289;52.962;6.196;2023-04-25T21:31:30;3.80;99.90
57444;DHT22;43289;52.962;6.196;2023-04-25T21:33:56;3.80;99.90
57444;DHT22;43289;52.962;6.196;2023-04-25T21:36:21;3.70;99.90
57444;DHT22;43289;52.962;6.196;2023-04-25T21:38:47;3.70;99.90
57444;DHT22;43289;52.962;6.196;2023-04-25T21:41:13;3.70;99.90
57444;DHT22;43289;52.962;6.196;2023-04-25T21:43:39;3.70;99.90
57444;DHT22;43289;52.962;6.196;2023-04-25T21:46:06;3.60;99.90
57444;DHT22;43289;52.962;6.196;2023-04-25T21:48:33;3.60;99.90
57444;DHT22;43289;52.962;6.196;2023-04-25T21:50:59;3.60;99.90
57444;DHT22;43289;52.962;6.196;2023-04-25T21:53:25;3.70;99.90
57444;DHT22;43289;52.962;6.196;2023-04-25T21:55:54;3.70;99.90
57444;DHT22;43289;52.962;6.196;2023-04-25T21:58:20;3.80;99.90
57444;DHT22;43289;52.962;6.196;2023-04-25T22:00:45;3.80;99.90
57444;DHT22;43289;52.962;6.196;2023-04-25T22:03:12;3.80;99.90
57444;DHT22;43289;52.962;6.196;2023-04-25T22:05:40;3.80;99.90
57444;DHT22;43289;52.962;6.196;2023-04-25T22:08:06;3.80;99.90
57444;DHT22;43289;52.962;6.196;2023-04-25T22:10:31;3.80;99.90
57444;DHT22;43289;52.962;6.196;2023-04-25T22:12:57;3.80;99.90
57444;DHT22;43289;52.962;6.196;2023-04-25T22:15:23;3.80;99.90
57444;DHT22;43289;52.962;6.196;2023-04-25T22:17:53;3.80;99.90
57444;DHT22;43289;52.962;6.196;2023-04-25T22:20:19;3.80;99.90
57444;DHT22;43289;52.962;6.196;2023-04-25T22:22:50;3.70;99.90
57444;DHT22;43289;52.962;6.196;2023-04-25T22:25:16;3.70;99.90
57444;DHT22;43289;52.962;6.196;2023-04-25T22:27:41;3.70;99.90
57444;DHT22;43289;52.962;6.196;2023-04-25T22:30:09;3.70;99.90
57444;DHT22;43289;52.962;6.196;2023-04-25T22:32:35;3.70;99.90
57444;DHT22;43289;52.962;6.196;2023-04-25T22:35:02;3.70;99.90
57444;DHT22;43289;52.962;6.196;2023-04-25T22:37:33;3.60;99.90
57444;DHT22;43289;52.962;6.196;2023-04-25T22:40:00;3.60;99.90
57444;DHT22;43289;52.962;6.196;2023-04-25T22:42:36;3.60;99.90
57444;DHT22;43289;52.962;6.196;2023-04-25T22:45:03;3.50;99.90
57444;DHT22;43289;52.962;6.196;2023-04-25T22:47:35;3.50;99.90
57444;DHT22;43289;52.962;6.196;2023-04-25T22:50:00;3.40;99.90
57444;DHT22;43289;52.962;6.196;2023-04-25T22:52:31;3.40;99.90
57444;DHT22;43289;52.962;6.196;2023-04-25T22:54:58;3.40;99.90
57444;DHT22;43289;52.962;6.196;2023-04-25T22:57:24;3.40;99.90
57444;DHT22;43289;52.962;6.196;2023-04-25T22:59:53;3.30;99.90
57444;DHT22;43289;52.962;6.196;2023-04-25T23:02:20;3.30;99.90
57444;DHT22;43289;52.962;6.196;2023-04-25T23:04:46;3.30;99.90
57444;DHT22;43289;52.962;6.196;2023-04-25T23:07:11;3.30;99.90